sensor_id;sensor_type;location;lat;lon;timestamp;pressure;altitude;pressure_sealevel;temperature;humidity
47716;BME280;33476;50.984;3.538;2022-11-15T00:00:54;100810.34;;;12.65;81.00
47716;BME280;33476;50.984;3.538;2022-11-15T00:03:22;100809.34;;;12.68;81.09
47716;BME280;33476;50.984;3.538;2022-11-15T00:05:49;100801.13;;;12.74;80.97
47716;BME280;33476;50.984;3.538;2022-11-15T00:08:14;100806.09;;;12.79;80.88
47716;BME280;33476;50.984;3.538;2022-11-15T00:10:40;100802.56;;;12.80;80.82
47716;BME280;33476;50.984;3.538;2022-11-15T00:13:10;100801.81;;;12.78;80.80
47716;BME280;33476;50.984;3.538;2022-11-15T00:15:37;100805.84;;;12.83;80.79
47716;BME280;33476;50.984;3.538;2022-11-15T00:18:03;100799.59;;;12.86;80.56
47716;BME280;33476;50.984;3.538;2022-11-15T00:20:29;100796.97;;;12.86;80.70
47716;BME280;33476;50.984;3.538;2022-11-15T00:22:54;100805.66;;;12.86;80.83
47716;BME280;33476;50.984;3.538;2022-11-15T00:25:20;100809.03;;;12.88;81.10
47716;BME280;33476;50.984;3.538;2022-11-15T00:27:45;100806.25;;;12.91;81.01
47716;BME280;33476;50.984;3.538;2022-11-15T00:30:11;100805.22;;;12.94;80.87
47716;BME280;33476;50.984;3.538;2022-11-15T00:32:37;100808.50;;;12.98;80.73
47716;BME280;33476;50.984;3.538;2022-11-15T00:35:03;100814.78;;;12.95;80.91
47716;BME280;33476;50.984;3.538;2022-11-15T00:37:28;100813.09;;;12.94;81.08
47716;BME280;33476;50.984;3.538;2022-11-15T00:39:54;100806.16;;;12.93;81.25
47716;BME280;33476;50.984;3.538;2022-11-15T00:42:19;100806.16;;;12.93;81.21
47716;BME280;33476;50.984;3.538;2022-11-15T00:44:44;100806.91;;;12.95;81.13
47716;BME280;33476;50.984;3.538;2022-11-15T00:47:09;100806.72;;;12.98;80.89
47716;BME280;33476;50.984;3.538;2022-11-15T00:49:35;100811.81;;;13.01;80.97
47716;BME280;33476;50.984;3.538;2022-11-15T00:52:00;100810.97;;;13.01;80.95
47716;BME280;33476;50.984;3.538;2022-11-15T00:54:25;100802.16;;;13.02;81.15
47716;BME280;33476;50.984;3.538;2022-11-15T00:56:51;100805.44;;;13.05;80.76
47716;BME280;33476;50.984;3.538;2022-11-15T00:59:16;100813.06;;;13.10;80.97
47716;BME280;33476;50.984;3.538;2022-11-15T01:01:41;100815.00;;;13.06;80.55
47716;BME280;33476;50.984;3.538;2022-11-15T01:04:06;100808.91;;;13.06;80.82
47716;BME280;33476;50.984;3.538;2022-11-15T01:06:32;100806.28;;;13.06;80.31
47716;BME280;33476;50.984;3.538;2022-11-15T01:08:58;100808.06;;;13.05;80.69
47716;BME280;33476;50.984;3.538;2022-11-15T01:11:23;100804.59;;;13.05;80.75
47716;BME280;33476;50.984;3.538;2022-11-15T01:13:49;100807.22;;;13.05;80.77
47716;BME280;33476;50.984;3.538;2022-11-15T01:16:16;100805.53;;;13.04;80.77
47716;BME280;33476;50.984;3.538;2022-11-15T01:18:43;100811.53;;;13.06;80.63
47716;BME280;33476;50.984;3.538;2022-11-15T01:21:10;100805.53;;;13.04;80.71
47716;BME280;33476;50.984;3.538;2022-11-15T01:23:36;100803.84;;;13.03;80.91
47716;BME280;33476;50.984;3.538;2022-11-15T01:26:04;100804.69;;;13.03;80.66
47716;BME280;33476;50.984;3.538;2022-11-15T01:28:32;100800.38;;;13.02;80.47
47716;BME280;33476;50.984;3.538;2022-11-15T01:30:59;100792.25;;;13.07;80.28
47716;BME280;33476;50.984;3.538;2022-11-15T01:33:24;100790.56;;;13.06;80.42
47716;BME280;33476;50.984;3.538;2022-11-15T01:35:50;100786.00;;;13.09;80.49
47716;BME280;33476;50.984;3.538;2022-11-15T01:38:15;100787.56;;;13.12;80.10
47716;BME280;33476;50.984;3.538;2022-11-15T01:40:43;100789.34;;;13.11;80.21
47716;BME280;33476;50.984;3.538;2022-11-15T01:45:53;100790.19;;;13.12;80.08
47716;BME280;33476;50.984;3.538;2022-11-15T01:48:22;100782.13;;;13.15;80.25
47716;BME280;33476;50.984;3.538;2022-11-15T01:50:50;100779.53;;;13.15;79.97
47716;BME280;33476;50.984;3.538;2022-11-15T01:53:17;100772.44;;;13.17;79.98
47716;BME280;33476;50.984;3.538;2022-11-15T01:55:44;100778.50;;;13.17;80.10
47716;BME280;33476;50.984;3.538;2022-11-15T01:58:09;100779.53;;;13.15;80.42
47716;BME280;33476;50.984;3.538;2022-11-15T02:00:35;100781.22;;;13.16;80.26
47716;BME280;33476;50.984;3.538;2022-11-15T02:03:01;100780.34;;;13.15;80.30
47716;BME280;33476;50.984;3.538;2022-11-15T02:05:27;100781.03;;;13.19;80.36
47716;BME280;33476;50.984;3.538;2022-11-15T02:07:53;100780.19;;;13.18;80.11
47716;BME280;33476;50.984;3.538;2022-11-15T02:10:23;100768.47;;;13.10;80.16
47716;BME280;33476;50.984;3.538;2022-11-15T02:12:49;100757.69;;;13.14;80.44
47716;BME280;33476;50.984;3.538;2022-11-15T02:15:16;100761.09;;;13.16;80.17
47716;BME280;33476;50.984;3.538;2022-11-15T02:17:56;100756.09;;;13.12;80.17
47716;BME280;33476;50.984;3.538;2022-11-15T02:20:35;100756.00;;;13.13;80.49
47716;BME280;33476;50.984;3.538;2022-11-15T02:26:15;100765.84;;;13.10;80.15
47716;BME280;33476;50.984;3.538;2022-11-15T02:31:42;100759.66;;;13.11;79.81
47716;BME280;33476;50.984;3.538;2022-11-15T02:34:28;100750.22;;;13.08;79.88
47716;BME280;33476;50.984;3.538;2022-11-15T02:39:45;100739.72;;;13.08;79.88
47716;BME280;33476;50.984;3.538;2022-11-15T02:42:16;100735.41;;;13.07;79.68
47716;BME280;33476;50.984;3.538;2022-11-15T02:45:05;100734.47;;;13.08;79.21
47716;BME280;33476;50.984;3.538;2022-11-15T02:47:37;100736.53;;;13.03;79.34
47716;BME280;33476;50.984;3.538;2022-11-15T02:50:08;100733.91;;;13.03;79.60
47716;BME280;33476;50.984;3.538;2022-11-15T02:52:34;100734.66;;;13.05;79.18
47716;BME280;33476;50.984;3.538;2022-11-15T02:55:00;100738.94;;;13.06;79.06
47716;BME280;33476;50.984;3.538;2022-11-15T03:00:15;100724.34;;;13.02;79.05
47716;BME280;33476;50.984;3.538;2022-11-15T03:06:04;100722.28;;;12.93;79.28
47716;BME280;33476;50.984;3.538;2022-11-15T03:08:34;100715.91;;;12.97;78.51
47716;BME280;33476;50.984;3.538;2022-11-15T03:11:08;100720.41;;;12.95;78.14
47716;BME280;33476;50.984;3.538;2022-11-15T03:19:06;100725.00;;;12.91;78.31
47716;BME280;33476;50.984;3.538;2022-11-15T03:21:35;100717.28;;;12.88;77.92
47716;BME280;33476;50.984;3.538;2022-11-15T03:24:03;100716.56;;;12.86;77.88
47716;BME280;33476;50.984;3.538;2022-11-15T03:26:32;100714.38;;;12.79;77.94
47716;BME280;33476;50.984;3.538;2022-11-15T03:29:06;100711.94;;;12.76;78.26
47716;BME280;33476;50.984;3.538;2022-11-15T03:31:36;100710.28;;;12.75;78.13
47716;BME280;33476;50.984;3.538;2022-11-15T03:36:48;100721.59;;;12.75;77.69
47716;BME280;33476;50.984;3.538;2022-11-15T03:39:15;100720.56;;;12.78;77.28
47716;BME280;33476;50.984;3.538;2022-11-15T03:41:53;100719.97;;;12.73;77.32
47716;BME280;33476;50.984;3.538;2022-11-15T03:47:30;100712.31;;;12.70;77.22
47716;BME280;33476;50.984;3.538;2022-11-15T03:50:03;100725.66;;;12.65;77.10
47716;BME280;33476;50.984;3.538;2022-11-15T03:52:32;100723.13;;;12.63;77.13
47716;BME280;33476;50.984;3.538;2022-11-15T03:55:00;100721.25;;;12.65;76.97
47716;BME280;33476;50.984;3.538;2022-11-15T03:57:26;100713.50;;;12.64;77.02
47716;BME280;33476;50.984;3.538;2022-11-15T03:59:52;100711.81;;;12.63;76.75
47716;BME280;33476;50.984;3.538;2022-11-15T04:02:17;100715.38;;;12.62;76.62
47716;BME280;33476;50.984;3.538;2022-11-15T04:04:43;100725.75;;;12.63;76.63
47716;BME280;33476;50.984;3.538;2022-11-15T04:07:08;100723.41;;;12.59;76.49
47716;BME280;33476;50.984;3.538;2022-11-15T04:09:33;100728.81;;;12.56;76.54
47716;BME280;33476;50.984;3.538;2022-11-15T04:12:18;100731.03;;;12.48;76.79
47716;BME280;33476;50.984;3.538;2022-11-15T04:14:59;100725.13;;;12.44;76.60
47716;BME280;33476;50.984;3.538;2022-11-15T04:17:42;100717.28;;;12.44;76.78
47716;BME280;33476;50.984;3.538;2022-11-15T04:20:15;100723.34;;;12.45;76.45
47716;BME280;33476;50.984;3.538;2022-11-15T04:23:01;100716.34;;;12.45;76.10
47716;BME280;33476;50.984;3.538;2022-11-15T04:25:46;100717.44;;;12.41;76.17
47716;BME280;33476;50.984;3.538;2022-11-15T04:28:14;100721.06;;;12.38;76.06
47716;BME280;33476;50.984;3.538;2022-11-15T04:30:39;100720.91;;;12.42;76.10
47716;BME280;33476;50.984;3.538;2022-11-15T04:33:05;100721.91;;;12.39;75.82
47716;BME280;33476;50.984;3.538;2022-11-15T04:35:30;100721.06;;;12.38;75.80
47716;BME280;33476;50.984;3.538;2022-11-15T04:37:56;100718.47;;;12.38;75.91
47716;BME280;33476;50.984;3.538;2022-11-15T04:40:21;100717.72;;;12.36;75.74
47716;BME280;33476;50.984;3.538;2022-11-15T04:42:47;100724.44;;;12.41;75.65
47716;BME280;33476;50.984;3.538;2022-11-15T04:45:12;100720.13;;;12.40;75.48
47716;BME280;33476;50.984;3.538;2022-11-15T04:47:38;100716.78;;;12.37;75.19
47716;BME280;33476;50.984;3.538;2022-11-15T04:50:03;100726.50;;;12.35;75.04
47716;BME280;33476;50.984;3.538;2022-11-15T04:52:29;100718.03;;;12.30;75.58
47716;BME280;33476;50.984;3.538;2022-11-15T04:54:54;100718.13;;;12.29;75.51
47716;BME280;33476;50.984;3.538;2022-11-15T04:57:20;100718.22;;;12.27;75.53
47716;BME280;33476;50.984;3.538;2022-11-15T04:59:46;100713.84;;;12.28;75.52
47716;BME280;33476;50.984;3.538;2022-11-15T05:02:11;100720.00;;;12.27;75.06
47716;BME280;33476;50.984;3.538;2022-11-15T05:04:36;100714.03;;;12.25;75.18
47716;BME280;33476;50.984;3.538;2022-11-15T05:07:02;100704.38;;;12.25;74.95
47716;BME280;33476;50.984;3.538;2022-11-15T05:09:29;100708.94;;;12.22;75.27
47716;BME280;33476;50.984;3.538;2022-11-15T05:11:54;100711.06;;;12.15;75.57
47716;BME280;33476;50.984;3.538;2022-11-15T05:14:20;100706.00;;;12.12;75.32
47716;BME280;33476;50.984;3.538;2022-11-15T05:16:45;100698.31;;;12.09;75.34
47716;BME280;33476;50.984;3.538;2022-11-15T05:19:10;100702.78;;;12.07;75.35
47716;BME280;33476;50.984;3.538;2022-11-15T05:21:36;100701.84;;;12.08;75.34
47716;BME280;33476;50.984;3.538;2022-11-15T05:24:02;100696.78;;;12.05;75.46
47716;BME280;33476;50.984;3.538;2022-11-15T05:26:28;100705.50;;;12.05;75.39
47716;BME280;33476;50.984;3.538;2022-11-15T05:28:58;100701.28;;;12.03;75.27
47716;BME280;33476;50.984;3.538;2022-11-15T05:31:24;100704.91;;;12.00;75.50
47716;BME280;33476;50.984;3.538;2022-11-15T05:33:51;100694.50;;;11.99;75.36
47716;BME280;33476;50.984;3.538;2022-11-15T05:36:43;100692.91;;;11.96;75.64
47716;BME280;33476;50.984;3.538;2022-11-15T05:39:10;100687.59;;;11.98;75.11
47716;BME280;33476;50.984;3.538;2022-11-15T05:41:40;100685.41;;;11.90;75.42
47716;BME280;33476;50.984;3.538;2022-11-15T05:44:07;100684.56;;;11.90;75.43
47716;BME280;33476;50.984;3.538;2022-11-15T05:46:35;100679.59;;;11.85;75.55
47716;BME280;33476;50.984;3.538;2022-11-15T05:49:05;100689.28;;;11.83;75.68
47716;BME280;33476;50.984;3.538;2022-11-15T05:51:32;100686.59;;;11.85;75.46
47716;BME280;33476;50.984;3.538;2022-11-15T05:53:58;100688.53;;;11.81;75.72
47716;BME280;33476;50.984;3.538;2022-11-15T05:56:24;100681.59;;;11.80;75.65
47716;BME280;33476;50.984;3.538;2022-11-15T05:58:52;100682.69;;;11.76;75.87
47716;BME280;33476;50.984;3.538;2022-11-15T06:01:18;100693.16;;;11.76;75.95
47716;BME280;33476;50.984;3.538;2022-11-15T06:03:43;100686.38;;;11.72;76.14
47716;BME280;33476;50.984;3.538;2022-11-15T06:06:09;100690.69;;;11.73;76.05
47716;BME280;33476;50.984;3.538;2022-11-15T06:08:34;100690.44;;;11.77;75.63
47716;BME280;33476;50.984;3.538;2022-11-15T06:11:06;100694.00;;;11.76;75.67
47716;BME280;33476;50.984;3.538;2022-11-15T06:13:32;100690.34;;;11.79;75.62
47716;BME280;33476;50.984;3.538;2022-11-15T06:15:58;100695.81;;;11.74;75.66
47716;BME280;33476;50.984;3.538;2022-11-15T06:18:24;100689.00;;;11.72;75.97
47716;BME280;33476;50.984;3.538;2022-11-15T06:20:49;100685.44;;;11.73;75.77
47716;BME280;33476;50.984;3.538;2022-11-15T06:23:15;100683.84;;;11.70;75.72
47716;BME280;33476;50.984;3.538;2022-11-15T06:25:40;100686.47;;;11.70;75.76
47716;BME280;33476;50.984;3.538;2022-11-15T06:28:05;100687.22;;;11.72;75.72
47716;BME280;33476;50.984;3.538;2022-11-15T06:30:31;100679.38;;;11.72;75.69
47716;BME280;33476;50.984;3.538;2022-11-15T06:33:04;100682.94;;;11.71;75.91
47716;BME280;33476;50.984;3.538;2022-11-15T06:35:30;100680.13;;;11.74;75.49
47716;BME280;33476;50.984;3.538;2022-11-15T06:38:05;100678.72;;;11.69;75.74
47716;BME280;33476;50.984;3.538;2022-11-15T06:40:36;100674.31;;;11.69;75.79
47716;BME280;33476;50.984;3.538;2022-11-15T06:43:02;100673.56;;;11.67;75.84
47716;BME280;33476;50.984;3.538;2022-11-15T06:45:27;100671.94;;;11.65;75.88
47716;BME280;33476;50.984;3.538;2022-11-15T06:47:53;100672.13;;;11.62;75.79
47716;BME280;33476;50.984;3.538;2022-11-15T06:50:18;100665.31;;;11.59;75.89
47716;BME280;33476;50.984;3.538;2022-11-15T06:52:44;100659.13;;;11.60;75.81
47716;BME280;33476;50.984;3.538;2022-11-15T06:55:09;100665.88;;;11.64;75.80
47716;BME280;33476;50.984;3.538;2022-11-15T06:57:35;100664.88;;;11.67;75.66
47716;BME280;33476;50.984;3.538;2022-11-15T07:00:02;100665.22;;;11.61;75.69
47716;BME280;33476;50.984;3.538;2022-11-15T07:02:28;100671.44;;;11.58;75.65
47716;BME280;33476;50.984;3.538;2022-11-15T07:04:53;100671.38;;;11.60;75.75
47716;BME280;33476;50.984;3.538;2022-11-15T07:07:18;100663.53;;;11.60;75.63
47716;BME280;33476;50.984;3.538;2022-11-15T07:09:44;100662.59;;;11.61;75.73
47716;BME280;33476;50.984;3.538;2022-11-15T07:12:09;100666.19;;;11.58;75.65
47716;BME280;33476;50.984;3.538;2022-11-15T07:14:34;100658.28;;;11.60;75.71
47716;BME280;33476;50.984;3.538;2022-11-15T07:17:03;100655.31;;;11.66;75.39
47716;BME280;33476;50.984;3.538;2022-11-15T07:19:28;100651.09;;;11.63;75.09
47716;BME280;33476;50.984;3.538;2022-11-15T07:21:54;100650.44;;;11.60;75.19
47716;BME280;33476;50.984;3.538;2022-11-15T07:24:19;100641.81;;;11.58;75.18
47716;BME280;33476;50.984;3.538;2022-11-15T07:26:44;100634.66;;;11.61;75.17
47716;BME280;33476;50.984;3.538;2022-11-15T07:29:09;100625.88;;;11.62;75.22
47716;BME280;33476;50.984;3.538;2022-11-15T07:31:35;100623.25;;;11.62;75.12
47716;BME280;33476;50.984;3.538;2022-11-15T07:34:00;100619.63;;;11.65;74.78
47716;BME280;33476;50.984;3.538;2022-11-15T07:36:26;100616.03;;;11.67;74.92
47716;BME280;33476;50.984;3.538;2022-11-15T07:38:51;100615.00;;;11.70;74.78
47716;BME280;33476;50.984;3.538;2022-11-15T07:41:16;100609.00;;;11.68;74.61
47716;BME280;33476;50.984;3.538;2022-11-15T07:43:42;100609.94;;;11.67;74.85
47716;BME280;33476;50.984;3.538;2022-11-15T07:46:08;100604.19;;;11.60;74.93
47716;BME280;33476;50.984;3.538;2022-11-15T07:48:35;100605.69;;;11.64;74.84
47716;BME280;33476;50.984;3.538;2022-11-15T07:51:01;100607.38;;;11.65;74.83
47716;BME280;33476;50.984;3.538;2022-11-15T07:53:26;100598.44;;;11.69;74.96
47716;BME280;33476;50.984;3.538;2022-11-15T07:55:52;100603.09;;;11.80;74.61
47716;BME280;33476;50.984;3.538;2022-11-15T07:58:18;100609.59;;;11.89;74.18
47716;BME280;33476;50.984;3.538;2022-11-15T08:00:44;100620.03;;;12.04;73.73
47716;BME280;33476;50.984;3.538;2022-11-15T08:03:14;100607.09;;;12.17;73.15
47716;BME280;33476;50.984;3.538;2022-11-15T08:05:41;100609.19;;;12.26;72.78
47716;BME280;33476;50.984;3.538;2022-11-15T08:08:08;100606.81;;;12.22;72.65
47716;BME280;33476;50.984;3.538;2022-11-15T08:10:34;100603.63;;;12.17;73.02
47716;BME280;33476;50.984;3.538;2022-11-15T08:13:10;100613.84;;;12.21;73.18
47716;BME280;33476;50.984;3.538;2022-11-15T08:15:36;100624.81;;;12.28;72.86
47716;BME280;33476;50.984;3.538;2022-11-15T08:18:05;100610.97;;;12.26;72.60
47716;BME280;33476;50.984;3.538;2022-11-15T08:20:32;100618.44;;;12.32;72.49
47716;BME280;33476;50.984;3.538;2022-11-15T08:23:02;100615.91;;;12.30;72.59
47716;BME280;33476;50.984;3.538;2022-11-15T08:25:29;100612.19;;;12.34;72.48
47716;BME280;33476;50.984;3.538;2022-11-15T08:27:56;100609.00;;;12.29;72.69
47716;BME280;33476;50.984;3.538;2022-11-15T08:30:22;100606.56;;;12.26;72.50
47716;BME280;33476;50.984;3.538;2022-11-15T08:32:49;100604.38;;;12.19;72.98
47716;BME280;33476;50.984;3.538;2022-11-15T08:35:14;100604.09;;;12.23;72.56
47716;BME280;33476;50.984;3.538;2022-11-15T08:37:40;100599.88;;;12.65;71.78
47716;BME280;33476;50.984;3.538;2022-11-15T08:40:05;100594.66;;;13.22;69.70
47716;BME280;33476;50.984;3.538;2022-11-15T08:42:31;100599.66;;;13.68;67.92
47716;BME280;33476;50.984;3.538;2022-11-15T08:44:56;100593.31;;;13.97;66.66
47716;BME280;33476;50.984;3.538;2022-11-15T08:47:22;100581.19;;;14.22;65.49
47716;BME280;33476;50.984;3.538;2022-11-15T08:49:47;100569.38;;;14.42;64.81
47716;BME280;33476;50.984;3.538;2022-11-15T08:52:13;100573.50;;;14.71;63.91
47716;BME280;33476;50.984;3.538;2022-11-15T08:54:39;100569.16;;;14.96;62.91
47716;BME280;33476;50.984;3.538;2022-11-15T08:57:04;100567.97;;;15.12;62.20
47716;BME280;33476;50.984;3.538;2022-11-15T08:59:29;100567.13;;;15.25;61.95
47716;BME280;33476;50.984;3.538;2022-11-15T09:01:54;100549.72;;;15.35;61.52
47716;BME280;33476;50.984;3.538;2022-11-15T09:04:20;100559.63;;;15.31;61.43
47716;BME280;33476;50.984;3.538;2022-11-15T09:06:45;100566.03;;;15.40;61.06
47716;BME280;33476;50.984;3.538;2022-11-15T09:09:10;100558.06;;;15.65;60.42
47716;BME280;33476;50.984;3.538;2022-11-15T09:11:36;100553.91;;;15.74;60.06
47716;BME280;33476;50.984;3.538;2022-11-15T09:14:01;100543.16;;;15.88;59.77
47716;BME280;33476;50.984;3.538;2022-11-15T09:16:27;100547.03;;;15.95;59.33
47716;BME280;33476;50.984;3.538;2022-11-15T09:18:53;100554.63;;;16.11;59.01
47716;BME280;33476;50.984;3.538;2022-11-15T09:21:18;100548.13;;;16.04;58.55
47716;BME280;33476;50.984;3.538;2022-11-15T09:23:44;100544.44;;;16.07;58.49
47716;BME280;33476;50.984;3.538;2022-11-15T09:26:09;100540.72;;;15.98;58.40
47716;BME280;33476;50.984;3.538;2022-11-15T09:28:35;100540.09;;;15.94;58.62
47716;BME280;33476;50.984;3.538;2022-11-15T09:31:04;100519.53;;;15.99;58.58
47716;BME280;33476;50.984;3.538;2022-11-15T09:33:30;100522.53;;;16.06;58.11
47716;BME280;33476;50.984;3.538;2022-11-15T09:36:07;100516.44;;;16.17;57.90
47716;BME280;33476;50.984;3.538;2022-11-15T09:38:33;100515.16;;;16.22;57.84
47716;BME280;33476;50.984;3.538;2022-11-15T09:44:05;100519.31;;;16.14;57.76
47716;BME280;33476;50.984;3.538;2022-11-15T09:46:48;100517.22;;;16.41;56.47
47716;BME280;33476;50.984;3.538;2022-11-15T09:49:18;100520.34;;;16.69;55.91
47716;BME280;33476;50.984;3.538;2022-11-15T09:51:45;100511.97;;;16.75;55.76
47716;BME280;33476;50.984;3.538;2022-11-15T09:57:12;100502.75;;;16.69;55.98
47716;BME280;33476;50.984;3.538;2022-11-15T10:04:43;100484.97;;;16.60;55.91
47716;BME280;33476;50.984;3.538;2022-11-15T10:07:26;100478.88;;;16.48;56.28
47716;BME280;33476;50.984;3.538;2022-11-15T10:10:14;100466.75;;;16.23;56.52
47716;BME280;33476;50.984;3.538;2022-11-15T10:12:45;100470.44;;;16.10;57.04
47716;BME280;33476;50.984;3.538;2022-11-15T10:15:15;100457.25;;;16.10;57.19
47716;BME280;33476;50.984;3.538;2022-11-15T10:18:01;100462.78;;;16.18;57.10
47716;BME280;33476;50.984;3.538;2022-11-15T10:20:30;100452.72;;;16.45;56.44
47716;BME280;33476;50.984;3.538;2022-11-15T10:23:05;100447.47;;;16.56;55.87
47716;BME280;33476;50.984;3.538;2022-11-15T10:25:34;100454.03;;;16.62;55.57
47716;BME280;33476;50.984;3.538;2022-11-15T10:28:19;100444.47;;;16.50;55.74
47716;BME280;33476;50.984;3.538;2022-11-15T10:30:51;100428.91;;;16.47;55.84
47716;BME280;33476;50.984;3.538;2022-11-15T10:33:33;100426.38;;;16.45;56.11
47716;BME280;33476;50.984;3.538;2022-11-15T10:36:18;100431.66;;;16.56;55.74
47716;BME280;33476;50.984;3.538;2022-11-15T10:47:06;100423.16;;;16.42;56.05
47716;BME280;33476;50.984;3.538;2022-11-15T10:49:59;100426.38;;;16.56;55.67
47716;BME280;33476;50.984;3.538;2022-11-15T10:52:25;100409.13;;;16.52;55.13
47716;BME280;33476;50.984;3.538;2022-11-15T10:57:31;100387.31;;;16.28;55.77
47716;BME280;33476;50.984;3.538;2022-11-15T11:00:02;100398.34;;;16.11;56.21
47716;BME280;33476;50.984;3.538;2022-11-15T11:02:41;100394.38;;;15.94;56.78
47716;BME280;33476;50.984;3.538;2022-11-15T11:10:36;100370.44;;;15.75;57.17
47716;BME280;33476;50.984;3.538;2022-11-15T11:13:22;100368.84;;;15.61;57.72
47716;BME280;33476;50.984;3.538;2022-11-15T11:15:54;100361.47;;;15.53;57.91
47716;BME280;33476;50.984;3.538;2022-11-15T11:18:26;100361.22;;;15.45;57.92
47716;BME280;33476;50.984;3.538;2022-11-15T11:20:58;100356.22;;;15.42;58.24
47716;BME280;33476;50.984;3.538;2022-11-15T11:24:02;100337.03;;;15.29;58.53
47716;BME280;33476;50.984;3.538;2022-11-15T11:26:59;100339.25;;;15.22;58.79
47716;BME280;33476;50.984;3.538;2022-11-15T11:29:41;100327.06;;;15.21;58.71
47716;BME280;33476;50.984;3.538;2022-11-15T11:32:31;100322.66;;;15.22;58.84
47716;BME280;33476;50.984;3.538;2022-11-15T11:40:32;100316.28;;;15.13;59.22
47716;BME280;33476;50.984;3.538;2022-11-15T11:43:11;100302.28;;;15.01;59.80
47716;BME280;33476;50.984;3.538;2022-11-15T11:45:52;100294.81;;;14.95;59.51
47716;BME280;33476;50.984;3.538;2022-11-15T11:50:51;100292.66;;;14.89;59.90
47716;BME280;33476;50.984;3.538;2022-11-15T11:53:26;100288.69;;;14.83;60.10
47716;BME280;33476;50.984;3.538;2022-11-15T11:55:54;100280.81;;;14.83;60.27
47716;BME280;33476;50.984;3.538;2022-11-15T11:58:36;100276.59;;;14.81;60.36
47716;BME280;33476;50.984;3.538;2022-11-15T12:01:12;100279.03;;;14.84;60.18
47716;BME280;33476;50.984;3.538;2022-11-15T12:06:33;100261.84;;;14.91;60.28
47716;BME280;33476;50.984;3.538;2022-11-15T12:14:42;100247.94;;;14.89;60.37
47716;BME280;33476;50.984;3.538;2022-11-15T12:17:11;100237.56;;;14.87;60.54
47716;BME280;33476;50.984;3.538;2022-11-15T12:19:38;100226.81;;;14.91;60.40
47716;BME280;33476;50.984;3.538;2022-11-15T12:22:19;100230.63;;;14.86;60.73
47716;BME280;33476;50.984;3.538;2022-11-15T12:24:54;100218.31;;;14.87;60.55
47716;BME280;33476;50.984;3.538;2022-11-15T12:30:02;100214.38;;;14.81;60.77
47716;BME280;33476;50.984;3.538;2022-11-15T12:32:31;100191.44;;;14.83;61.07
47716;BME280;33476;50.984;3.538;2022-11-15T12:34:59;100200.63;;;14.89;60.69
47716;BME280;33476;50.984;3.538;2022-11-15T12:42:42;100187.22;;;14.81;60.93
47716;BME280;33476;50.984;3.538;2022-11-15T12:45:36;100181.03;;;14.82;60.92
47716;BME280;33476;50.984;3.538;2022-11-15T12:50:58;100174.44;;;14.87;60.84
47716;BME280;33476;50.984;3.538;2022-11-15T12:58:47;100142.31;;;14.84;60.99
47716;BME280;33476;50.984;3.538;2022-11-15T13:11:53;100124.75;;;14.96;60.59
47716;BME280;33476;50.984;3.538;2022-11-15T13:19:45;100121.97;;;14.86;61.13
47716;BME280;33476;50.984;3.538;2022-11-15T13:22:11;100119.22;;;14.87;61.40
47716;BME280;33476;50.984;3.538;2022-11-15T13:24:55;100108.72;;;14.87;61.31
47716;BME280;33476;50.984;3.538;2022-11-15T13:27:21;100101.31;;;14.81;61.34
47716;BME280;33476;50.984;3.538;2022-11-15T13:29:47;100092.81;;;14.78;61.86
47716;BME280;33476;50.984;3.538;2022-11-15T13:32:14;100094.03;;;14.74;62.09
47716;BME280;33476;50.984;3.538;2022-11-15T13:34:44;100093.41;;;14.70;62.43
47716;BME280;33476;50.984;3.538;2022-11-15T13:37:31;100094.59;;;14.66;62.96
47716;BME280;33476;50.984;3.538;2022-11-15T13:40:56;100095.56;;;14.65;62.90
47716;BME280;33476;50.984;3.538;2022-11-15T13:42:57;100090.53;;;14.62;63.56
47716;BME280;33476;50.984;3.538;2022-11-15T13:45:23;100080.13;;;14.60;63.71
47716;BME280;33476;50.984;3.538;2022-11-15T13:47:56;100072.50;;;14.57;64.24
47716;BME280;33476;50.984;3.538;2022-11-15T13:50:28;100078.81;;;14.55;64.64
47716;BME280;33476;50.984;3.538;2022-11-15T13:52:58;100060.78;;;14.50;64.85
47716;BME280;33476;50.984;3.538;2022-11-15T13:55:26;100069.69;;;14.48;65.39
47716;BME280;33476;50.984;3.538;2022-11-15T13:57:56;100062.03;;;14.45;65.79
47716;BME280;33476;50.984;3.538;2022-11-15T14:02:51;100064.66;;;14.45;65.98
47716;BME280;33476;50.984;3.538;2022-11-15T14:05:22;100065.41;;;14.47;65.95
47716;BME280;33476;50.984;3.538;2022-11-15T14:07:57;100055.09;;;14.44;66.37
47716;BME280;33476;50.984;3.538;2022-11-15T14:10:34;100061.44;;;14.41;66.34
47716;BME280;33476;50.984;3.538;2022-11-15T14:13:00;100063.13;;;14.42;66.81
47716;BME280;33476;50.984;3.538;2022-11-15T14:15:31;100055.56;;;14.38;66.91
47716;BME280;33476;50.984;3.538;2022-11-15T14:17:57;100057.25;;;14.39;67.16
47716;BME280;33476;50.984;3.538;2022-11-15T14:22:54;100048.88;;;14.33;67.83
47716;BME280;33476;50.984;3.538;2022-11-15T14:25:24;100053.75;;;14.27;68.37
47716;BME280;33476;50.984;3.538;2022-11-15T14:30:48;100051.72;;;14.30;68.58
47716;BME280;33476;50.984;3.538;2022-11-15T14:33:21;100047.16;;;14.21;68.88
47716;BME280;33476;50.984;3.538;2022-11-15T14:35:47;100040.25;;;14.20;69.21
47716;BME280;33476;50.984;3.538;2022-11-15T14:38:13;100047.41;;;14.18;69.40
47716;BME280;33476;50.984;3.538;2022-11-15T14:40:39;100042.84;;;14.09;70.18
47716;BME280;33476;50.984;3.538;2022-11-15T14:43:04;100045.69;;;14.06;70.52
47716;BME280;33476;50.984;3.538;2022-11-15T14:45:35;100037.47;;;13.99;70.65
47716;BME280;33476;50.984;3.538;2022-11-15T14:48:00;100040.69;;;14.03;70.70
47716;BME280;33476;50.984;3.538;2022-11-15T14:50:25;100032.09;;;14.01;70.94
47716;BME280;33476;50.984;3.538;2022-11-15T14:52:53;100019.91;;;14.00;71.22